sensor_id;sensor_type;location;lat;lon;timestamp;P1;durP1;ratioP1;P2;durP2;ratioP2
11500;SDS011;5807;51.606;7.624;2022-10-16T00:02:11;6.77;;;4.57;;
11500;SDS011;5807;51.606;7.624;2022-10-16T00:04:38;5.53;;;4.50;;
11500;SDS011;5807;51.606;7.624;2022-10-16T00:07:06;7.53;;;4.77;;
11500;SDS011;5807;51.606;7.624;2022-10-16T00:09:33;5.90;;;5.00;;
11500;SDS011;5807;51.606;7.624;2022-10-16T00:12:00;6.90;;;5.30;;
11500;SDS011;5807;51.606;7.624;2022-10-16T00:14:28;6.03;;;5.33;;
11500;SDS011;5807;51.606;7.624;2022-10-16T00:16:56;5.40;;;4.77;;
11500;SDS011;5807;51.606;7.624;2022-10-16T00:19:22;7.23;;;5.07;;
11500;SDS011;5807;51.606;7.624;2022-10-16T00:21:49;6.77;;;4.97;;
11500;SDS011;5807;51.606;7.624;2022-10-16T00:24:17;6.67;;;5.10;;
11500;SDS011;5807;51.606;7.624;2022-10-16T00:26:44;5.57;;;5.07;;
11500;SDS011;5807;51.606;7.624;2022-10-16T00:29:11;6.97;;;5.13;;
11500;SDS011;5807;51.606;7.624;2022-10-16T00:31:38;6.57;;;4.47;;
11500;SDS011;5807;51.606;7.624;2022-10-16T00:34:05;6.00;;;4.83;;
11500;SDS011;5807;51.606;7.624;2022-10-16T00:36:32;6.33;;;4.70;;
11500;SDS011;5807;51.606;7.624;2022-10-16T00:38:59;5.43;;;4.97;;
11500;SDS011;5807;51.606;7.624;2022-10-16T00:41:28;5.03;;;4.63;;
11500;SDS011;5807;51.606;7.624;2022-10-16T00:43:56;8.27;;;5.40;;
11500;SDS011;5807;51.606;7.624;2022-10-16T00:46:25;6.70;;;4.83;;
11500;SDS011;5807;51.606;7.624;2022-10-16T00:48:56;5.00;;;4.50;;
11500;SDS011;5807;51.606;7.624;2022-10-16T00:51:28;5.40;;;4.50;;
11500;SDS011;5807;51.606;7.624;2022-10-16T00:53:59;6.17;;;4.43;;
11500;SDS011;5807;51.606;7.624;2022-10-16T00:56:28;7.03;;;4.43;;
11500;SDS011;5807;51.606;7.624;2022-10-16T00:58:55;6.93;;;4.60;;
11500;SDS011;5807;51.606;7.624;2022-10-16T01:01:21;6.33;;;4.33;;
11500;SDS011;5807;51.606;7.624;2022-10-16T01:03:48;4.57;;;4.17;;
11500;SDS011;5807;51.606;7.624;2022-10-16T01:06:19;5.73;;;4.47;;
11500;SDS011;5807;51.606;7.624;2022-10-16T01:08:53;5.03;;;3.90;;
11500;SDS011;5807;51.606;7.624;2022-10-16T01:11:33;5.63;;;3.83;;
11500;SDS011;5807;51.606;7.624;2022-10-16T01:14:05;4.17;;;3.87;;
11500;SDS011;5807;51.606;7.624;2022-10-16T01:16:38;6.60;;;4.20;;
11500;SDS011;5807;51.606;7.624;2022-10-16T01:19:12;4.97;;;4.03;;
11500;SDS011;5807;51.606;7.624;2022-10-16T01:21:43;4.37;;;3.90;;
11500;SDS011;5807;51.606;7.624;2022-10-16T01:24:17;4.60;;;4.03;;
11500;SDS011;5807;51.606;7.624;2022-10-16T01:27:02;4.90;;;3.93;;
11500;SDS011;5807;51.606;7.624;2022-10-16T01:29:41;4.77;;;4.10;;
11500;SDS011;5807;51.606;7.624;2022-10-16T01:32:27;5.23;;;3.73;;
11500;SDS011;5807;51.606;7.624;2022-10-16T01:35:00;6.27;;;3.63;;
11500;SDS011;5807;51.606;7.624;2022-10-16T01:37:32;4.20;;;3.90;;
11500;SDS011;5807;51.606;7.624;2022-10-16T01:40:06;4.00;;;3.63;;
11500;SDS011;5807;51.606;7.624;2022-10-16T01:42:39;4.20;;;3.80;;
11500;SDS011;5807;51.606;7.624;2022-10-16T01:45:13;4.33;;;3.93;;
11500;SDS011;5807;51.606;7.624;2022-10-16T01:47:46;4.73;;;3.87;;
11500;SDS011;5807;51.606;7.624;2022-10-16T01:50:16;6.60;;;3.60;;
11500;SDS011;5807;51.606;7.624;2022-10-16T01:52:45;3.60;;;3.30;;
11500;SDS011;5807;51.606;7.624;2022-10-16T01:55:17;3.23;;;3.03;;
11500;SDS011;5807;51.606;7.624;2022-10-16T01:57:48;4.87;;;3.80;;
11500;SDS011;5807;51.606;7.624;2022-10-16T02:00:19;4.83;;;3.53;;
11500;SDS011;5807;51.606;7.624;2022-10-16T02:02:47;4.10;;;3.43;;
11500;SDS011;5807;51.606;7.624;2022-10-16T02:05:20;5.03;;;3.37;;
11500;SDS011;5807;51.606;7.624;2022-10-16T02:07:51;3.93;;;3.53;;
11500;SDS011;5807;51.606;7.624;2022-10-16T02:10:19;5.17;;;3.60;;
11500;SDS011;5807;51.606;7.624;2022-10-16T02:12:48;4.63;;;3.87;;
11500;SDS011;5807;51.606;7.624;2022-10-16T02:15:20;3.47;;;2.90;;
11500;SDS011;5807;51.606;7.624;2022-10-16T02:17:46;3.87;;;3.57;;
11500;SDS011;5807;51.606;7.624;2022-10-16T02:20:14;4.60;;;4.20;;
11500;SDS011;5807;51.606;7.624;2022-10-16T02:22:42;5.27;;;3.40;;
11500;SDS011;5807;51.606;7.624;2022-10-16T02:25:14;4.40;;;3.20;;
11500;SDS011;5807;51.606;7.624;2022-10-16T02:27:48;4.20;;;3.17;;
11500;SDS011;5807;51.606;7.624;2022-10-16T02:30:23;4.63;;;3.33;;
11500;SDS011;5807;51.606;7.624;2022-10-16T02:32:54;5.33;;;3.30;;
11500;SDS011;5807;51.606;7.624;2022-10-16T02:35:25;4.33;;;2.83;;
11500;SDS011;5807;51.606;7.624;2022-10-16T02:37:56;3.87;;;3.57;;
11500;SDS011;5807;51.606;7.624;2022-10-16T02:40:24;2.80;;;2.63;;
11500;SDS011;5807;51.606;7.624;2022-10-16T02:42:54;4.03;;;3.33;;
11500;SDS011;5807;51.606;7.624;2022-10-16T02:45:21;3.30;;;2.87;;
11500;SDS011;5807;51.606;7.624;2022-10-16T02:47:48;3.30;;;2.97;;
11500;SDS011;5807;51.606;7.624;2022-10-16T02:50:16;6.80;;;3.17;;
11500;SDS011;5807;51.606;7.624;2022-10-16T02:52:46;3.13;;;2.80;;
11500;SDS011;5807;51.606;7.624;2022-10-16T02:55:13;3.93;;;3.07;;
11500;SDS011;5807;51.606;7.624;2022-10-16T02:57:41;2.80;;;2.60;;
11500;SDS011;5807;51.606;7.624;2022-10-16T03:00:13;5.17;;;2.70;;
11500;SDS011;5807;51.606;7.624;2022-10-16T03:02:42;4.63;;;2.77;;
11500;SDS011;5807;51.606;7.624;2022-10-16T03:05:09;2.87;;;2.63;;
11500;SDS011;5807;51.606;7.624;2022-10-16T03:07:37;2.90;;;2.70;;
11500;SDS011;5807;51.606;7.624;2022-10-16T03:10:06;3.37;;;2.77;;
11500;SDS011;5807;51.606;7.624;2022-10-16T03:12:33;3.10;;;2.90;;
11500;SDS011;5807;51.606;7.624;2022-10-16T03:15:00;2.60;;;2.50;;
11500;SDS011;5807;51.606;7.624;2022-10-16T03:17:29;2.73;;;2.53;;
11500;SDS011;5807;51.606;7.624;2022-10-16T03:19:58;3.00;;;2.70;;
11500;SDS011;5807;51.606;7.624;2022-10-16T03:22:25;2.70;;;2.50;;
11500;SDS011;5807;51.606;7.624;2022-10-16T03:24:52;5.30;;;2.50;;
11500;SDS011;5807;51.606;7.624;2022-10-16T03:27:19;2.40;;;2.17;;
11500;SDS011;5807;51.606;7.624;2022-10-16T03:29:47;6.57;;;3.20;;
11500;SDS011;5807;51.606;7.624;2022-10-16T03:32:14;2.60;;;2.40;;
11500;SDS011;5807;51.606;7.624;2022-10-16T03:34:43;3.47;;;2.30;;
11500;SDS011;5807;51.606;7.624;2022-10-16T03:37:10;2.47;;;2.27;;
11500;SDS011;5807;51.606;7.624;2022-10-16T03:39:37;2.33;;;2.13;;
11500;SDS011;5807;51.606;7.624;2022-10-16T03:42:04;2.33;;;2.17;;
11500;SDS011;5807;51.606;7.624;2022-10-16T03:44:32;2.20;;;2.10;;
11500;SDS011;5807;51.606;7.624;2022-10-16T03:46:59;2.77;;;2.50;;
11500;SDS011;5807;51.606;7.624;2022-10-16T03:49:28;2.57;;;2.37;;
11500;SDS011;5807;51.606;7.624;2022-10-16T03:51:57;4.70;;;2.13;;
11500;SDS011;5807;51.606;7.624;2022-10-16T03:54:24;3.00;;;2.27;;
11500;SDS011;5807;51.606;7.624;2022-10-16T03:56:52;2.33;;;2.17;;
11500;SDS011;5807;51.606;7.624;2022-10-16T03:59:18;2.30;;;2.00;;
11500;SDS011;5807;51.606;7.624;2022-10-16T04:01:45;2.30;;;2.20;;
11500;SDS011;5807;51.606;7.624;2022-10-16T04:04:12;3.53;;;2.37;;
11500;SDS011;5807;51.606;7.624;2022-10-16T04:06:39;2.40;;;2.20;;
11500;SDS011;5807;51.606;7.624;2022-10-16T04:09:08;2.40;;;2.23;;
11500;SDS011;5807;51.606;7.624;2022-10-16T04:11:35;2.20;;;2.10;;
11500;SDS011;5807;51.606;7.624;2022-10-16T04:14:03;3.20;;;2.10;;
11500;SDS011;5807;51.606;7.624;2022-10-16T04:16:31;2.07;;;1.83;;
11500;SDS011;5807;51.606;7.624;2022-10-16T04:18:58;2.13;;;2.03;;
11500;SDS011;5807;51.606;7.624;2022-10-16T04:21:25;2.13;;;2.03;;
11500;SDS011;5807;51.606;7.624;2022-10-16T04:23:52;2.33;;;2.23;;
11500;SDS011;5807;51.606;7.624;2022-10-16T04:26:20;2.27;;;2.17;;
11500;SDS011;5807;51.606;7.624;2022-10-16T04:28:47;2.47;;;2.27;;
11500;SDS011;5807;51.606;7.624;2022-10-16T04:31:14;2.23;;;1.93;;
11500;SDS011;5807;51.606;7.624;2022-10-16T04:33:42;4.03;;;2.63;;
11500;SDS011;5807;51.606;7.624;2022-10-16T04:36:09;2.30;;;2.20;;
11500;SDS011;5807;51.606;7.624;2022-10-16T04:38:36;2.33;;;1.90;;
11500;SDS011;5807;51.606;7.624;2022-10-16T04:41:04;6.23;;;2.23;;
11500;SDS011;5807;51.606;7.624;2022-10-16T04:43:33;2.13;;;2.03;;
11500;SDS011;5807;51.606;7.624;2022-10-16T04:46:01;2.23;;;2.00;;
11500;SDS011;5807;51.606;7.624;2022-10-16T04:48:29;2.00;;;1.90;;
11500;SDS011;5807;51.606;7.624;2022-10-16T04:50:57;2.17;;;2.07;;
11500;SDS011;5807;51.606;7.624;2022-10-16T04:53:24;3.77;;;2.30;;
11500;SDS011;5807;51.606;7.624;2022-10-16T04:55:51;3.00;;;2.47;;
11500;SDS011;5807;51.606;7.624;2022-10-16T04:58:18;3.63;;;2.13;;
11500;SDS011;5807;51.606;7.624;2022-10-16T05:00:47;2.50;;;2.30;;
11500;SDS011;5807;51.606;7.624;2022-10-16T05:03:14;2.67;;;2.47;;
11500;SDS011;5807;51.606;7.624;2022-10-16T05:05:42;2.60;;;2.47;;
11500;SDS011;5807;51.606;7.624;2022-10-16T05:08:10;6.53;;;2.70;;
11500;SDS011;5807;51.606;7.624;2022-10-16T05:10:37;3.17;;;2.50;;
11500;SDS011;5807;51.606;7.624;2022-10-16T05:13:04;2.33;;;2.23;;
11500;SDS011;5807;51.606;7.624;2022-10-16T05:15:31;2.47;;;2.33;;
11500;SDS011;5807;51.606;7.624;2022-10-16T05:18:00;2.33;;;2.23;;
11500;SDS011;5807;51.606;7.624;2022-10-16T05:20:27;2.30;;;2.10;;
11500;SDS011;5807;51.606;7.624;2022-10-16T05:22:55;2.37;;;2.27;;
11500;SDS011;5807;51.606;7.624;2022-10-16T05:25:22;2.67;;;2.47;;
11500;SDS011;5807;51.606;7.624;2022-10-16T05:27:49;2.40;;;2.30;;
11500;SDS011;5807;51.606;7.624;2022-10-16T05:30:17;2.33;;;2.23;;
11500;SDS011;5807;51.606;7.624;2022-10-16T05:32:46;4.67;;;2.33;;
11500;SDS011;5807;51.606;7.624;2022-10-16T05:35:15;5.07;;;2.40;;
11500;SDS011;5807;51.606;7.624;2022-10-16T05:37:42;2.93;;;2.43;;
11500;SDS011;5807;51.606;7.624;2022-10-16T05:40:10;3.20;;;2.83;;
11500;SDS011;5807;51.606;7.624;2022-10-16T05:42:37;2.60;;;2.30;;
11500;SDS011;5807;51.606;7.624;2022-10-16T05:45:05;2.33;;;2.23;;
11500;SDS011;5807;51.606;7.624;2022-10-16T05:47:33;2.80;;;2.27;;
11500;SDS011;5807;51.606;7.624;2022-10-16T05:50:00;2.40;;;2.23;;
11500;SDS011;5807;51.606;7.624;2022-10-16T05:52:31;2.30;;;2.20;;
11500;SDS011;5807;51.606;7.624;2022-10-16T05:55:01;2.13;;;2.03;;
11500;SDS011;5807;51.606;7.624;2022-10-16T05:57:28;3.00;;;2.60;;
11500;SDS011;5807;51.606;7.624;2022-10-16T05:59:55;2.23;;;2.03;;
11500;SDS011;5807;51.606;7.624;2022-10-16T06:02:22;2.20;;;2.10;;
11500;SDS011;5807;51.606;7.624;2022-10-16T06:04:51;2.10;;;2.00;;
11500;SDS011;5807;51.606;7.624;2022-10-16T06:07:20;2.40;;;2.20;;
11500;SDS011;5807;51.606;7.624;2022-10-16T06:09:49;3.33;;;2.40;;
11500;SDS011;5807;51.606;7.624;2022-10-16T06:12:19;2.40;;;2.30;;
11500;SDS011;5807;51.606;7.624;2022-10-16T06:14:46;7.43;;;2.60;;
11500;SDS011;5807;51.606;7.624;2022-10-16T06:17:13;2.47;;;2.37;;
11500;SDS011;5807;51.606;7.624;2022-10-16T06:19:41;2.53;;;2.33;;
11500;SDS011;5807;51.606;7.624;2022-10-16T06:22:08;3.10;;;2.73;;
11500;SDS011;5807;51.606;7.624;2022-10-16T06:24:35;2.90;;;2.47;;
11500;SDS011;5807;51.606;7.624;2022-10-16T06:27:04;2.53;;;2.43;;
11500;SDS011;5807;51.606;7.624;2022-10-16T06:29:31;3.23;;;3.03;;
11500;SDS011;5807;51.606;7.624;2022-10-16T06:31:59;2.47;;;2.00;;
11500;SDS011;5807;51.606;7.624;2022-10-16T06:34:26;2.20;;;2.10;;
11500;SDS011;5807;51.606;7.624;2022-10-16T06:36:53;2.33;;;2.23;;
11500;SDS011;5807;51.606;7.624;2022-10-16T06:39:23;2.40;;;2.20;;
11500;SDS011;5807;51.606;7.624;2022-10-16T06:41:51;2.30;;;2.10;;
11500;SDS011;5807;51.606;7.624;2022-10-16T06:44:19;2.17;;;2.00;;
11500;SDS011;5807;51.606;7.624;2022-10-16T06:46:47;2.77;;;2.10;;
11500;SDS011;5807;51.606;7.624;2022-10-16T06:49:14;2.40;;;2.30;;
11500;SDS011;5807;51.606;7.624;2022-10-16T06:51:46;2.30;;;2.00;;
11500;SDS011;5807;51.606;7.624;2022-10-16T06:54:14;2.30;;;2.20;;
11500;SDS011;5807;51.606;7.624;2022-10-16T06:56:42;2.60;;;2.03;;
11500;SDS011;5807;51.606;7.624;2022-10-16T06:59:09;2.60;;;2.07;;
11500;SDS011;5807;51.606;7.624;2022-10-16T07:01:37;2.20;;;2.10;;
11500;SDS011;5807;51.606;7.624;2022-10-16T07:04:05;2.00;;;1.90;;
11500;SDS011;5807;51.606;7.624;2022-10-16T07:06:32;2.07;;;1.90;;
11500;SDS011;5807;51.606;7.624;2022-10-16T07:11:49;2.20;;;2.00;;
11500;SDS011;5807;51.606;7.624;2022-10-16T07:14:17;2.10;;;2.00;;
11500;SDS011;5807;51.606;7.624;2022-10-16T07:16:46;2.13;;;1.90;;
11500;SDS011;5807;51.606;7.624;2022-10-16T07:19:13;2.20;;;2.00;;
11500;SDS011;5807;51.606;7.624;2022-10-16T07:21:42;2.10;;;1.90;;
11500;SDS011;5807;51.606;7.624;2022-10-16T07:24:11;2.10;;;2.00;;
11500;SDS011;5807;51.606;7.624;2022-10-16T07:26:39;1.87;;;1.77;;
11500;SDS011;5807;51.606;7.624;2022-10-16T07:32:32;2.53;;;1.90;;
11500;SDS011;5807;51.606;7.624;2022-10-16T07:34:59;1.87;;;1.77;;
11500;SDS011;5807;51.606;7.624;2022-10-16T07:37:25;1.33;;;1.33;;
11500;SDS011;5807;51.606;7.624;2022-10-16T07:39:52;2.10;;;1.80;;
11500;SDS011;5807;51.606;7.624;2022-10-16T07:42:19;2.23;;;1.90;;
11500;SDS011;5807;51.606;7.624;2022-10-16T07:44:46;1.90;;;1.80;;
11500;SDS011;5807;51.606;7.624;2022-10-16T07:47:12;3.00;;;1.93;;
11500;SDS011;5807;51.606;7.624;2022-10-16T07:49:41;2.00;;;1.90;;
11500;SDS011;5807;51.606;7.624;2022-10-16T07:52:08;1.77;;;1.70;;
11500;SDS011;5807;51.606;7.624;2022-10-16T07:54:34;2.00;;;1.90;;
11500;SDS011;5807;51.606;7.624;2022-10-16T07:57:01;2.33;;;2.07;;
11500;SDS011;5807;51.606;7.624;2022-10-16T07:59:28;2.50;;;1.90;;
11500;SDS011;5807;51.606;7.624;2022-10-16T08:01:55;2.50;;;2.00;;
11500;SDS011;5807;51.606;7.624;2022-10-16T08:04:22;2.10;;;2.00;;
11500;SDS011;5807;51.606;7.624;2022-10-16T08:06:50;2.10;;;1.90;;
11500;SDS011;5807;51.606;7.624;2022-10-16T08:09:19;2.03;;;1.90;;
11500;SDS011;5807;51.606;7.624;2022-10-16T08:11:46;2.10;;;1.80;;
11500;SDS011;5807;51.606;7.624;2022-10-16T08:14:16;2.03;;;1.80;;
11500;SDS011;5807;51.606;7.624;2022-10-16T08:16:43;1.57;;;1.57;;
11500;SDS011;5807;51.606;7.624;2022-10-16T08:19:10;2.17;;;1.97;;
11500;SDS011;5807;51.606;7.624;2022-10-16T08:21:37;2.23;;;2.10;;
11500;SDS011;5807;51.606;7.624;2022-10-16T08:27:32;2.00;;;1.83;;
11500;SDS011;5807;51.606;7.624;2022-10-16T08:29:59;3.13;;;1.53;;
11500;SDS011;5807;51.606;7.624;2022-10-16T08:32:26;1.73;;;1.63;;
11500;SDS011;5807;51.606;7.624;2022-10-16T08:34:55;2.30;;;1.90;;
11500;SDS011;5807;51.606;7.624;2022-10-16T08:37:23;3.43;;;1.80;;
11500;SDS011;5807;51.606;7.624;2022-10-16T08:39:50;2.73;;;1.80;;
11500;SDS011;5807;51.606;7.624;2022-10-16T08:42:24;3.40;;;1.90;;
11500;SDS011;5807;51.606;7.624;2022-10-16T08:45:16;2.07;;;1.97;;
11500;SDS011;5807;51.606;7.624;2022-10-16T08:50:41;2.40;;;1.73;;
11500;SDS011;5807;51.606;7.624;2022-10-16T08:53:10;1.97;;;1.73;;
11500;SDS011;5807;51.606;7.624;2022-10-16T08:55:41;1.90;;;1.57;;
11500;SDS011;5807;51.606;7.624;2022-10-16T09:00:45;2.93;;;1.60;;
11500;SDS011;5807;51.606;7.624;2022-10-16T09:03:17;3.03;;;1.63;;
11500;SDS011;5807;51.606;7.624;2022-10-16T09:05:54;1.63;;;1.53;;
11500;SDS011;5807;51.606;7.624;2022-10-16T09:08:35;3.47;;;1.70;;
11500;SDS011;5807;51.606;7.624;2022-10-16T09:11:11;2.40;;;1.63;;
11500;SDS011;5807;51.606;7.624;2022-10-16T09:13:47;1.67;;;1.57;;
11500;SDS011;5807;51.606;7.624;2022-10-16T09:16:19;2.10;;;1.67;;
11500;SDS011;5807;51.606;7.624;2022-10-16T09:18:51;4.53;;;1.57;;
11500;SDS011;5807;51.606;7.624;2022-10-16T09:21:37;2.13;;;1.37;;
11500;SDS011;5807;51.606;7.624;2022-10-16T09:24:09;2.37;;;1.60;;
11500;SDS011;5807;51.606;7.624;2022-10-16T09:26:39;5.60;;;1.53;;
11500;SDS011;5807;51.606;7.624;2022-10-16T09:29:08;7.90;;;1.50;;
11500;SDS011;5807;51.606;7.624;2022-10-16T09:31:35;1.57;;;1.30;;
11500;SDS011;5807;51.606;7.624;2022-10-16T09:34:02;2.97;;;1.40;;
11500;SDS011;5807;51.606;7.624;2022-10-16T09:36:33;2.17;;;1.20;;
11500;SDS011;5807;51.606;7.624;2022-10-16T09:39:05;1.50;;;1.10;;
11500;SDS011;5807;51.606;7.624;2022-10-16T09:41:34;2.03;;;1.23;;
11500;SDS011;5807;51.606;7.624;2022-10-16T09:44:03;1.20;;;1.20;;
11500;SDS011;5807;51.606;7.624;2022-10-16T09:46:34;3.33;;;1.20;;
11500;SDS011;5807;51.606;7.624;2022-10-16T09:49:03;1.10;;;1.00;;
11500;SDS011;5807;51.606;7.624;2022-10-16T09:51:32;1.90;;;1.00;;
11500;SDS011;5807;51.606;7.624;2022-10-16T09:54:11;2.90;;;1.27;;
11500;SDS011;5807;51.606;7.624;2022-10-16T09:56:40;1.50;;;1.27;;
11500;SDS011;5807;51.606;7.624;2022-10-16T09:59:10;1.57;;;1.20;;
11500;SDS011;5807;51.606;7.624;2022-10-16T10:01:40;1.73;;;1.10;;
11500;SDS011;5807;51.606;7.624;2022-10-16T10:04:10;0.90;;;0.90;;
11500;SDS011;5807;51.606;7.624;2022-10-16T10:06:40;1.43;;;1.30;;
11500;SDS011;5807;51.606;7.624;2022-10-16T10:09:15;5.60;;;1.10;;
11500;SDS011;5807;51.606;7.624;2022-10-16T10:11:52;1.13;;;0.90;;
11500;SDS011;5807;51.606;7.624;2022-10-16T10:14:26;2.13;;;1.27;;
11500;SDS011;5807;51.606;7.624;2022-10-16T10:17:10;2.30;;;1.17;;
11500;SDS011;5807;51.606;7.624;2022-10-16T10:19:39;1.03;;;1.03;;
11500;SDS011;5807;51.606;7.624;2022-10-16T10:31:03;1.57;;;0.77;;
11500;SDS011;5807;51.606;7.624;2022-10-16T10:33:38;0.80;;;0.80;;
11500;SDS011;5807;51.606;7.624;2022-10-16T10:36:16;1.80;;;1.00;;
11500;SDS011;5807;51.606;7.624;2022-10-16T10:38:53;2.03;;;0.90;;
11500;SDS011;5807;51.606;7.624;2022-10-16T10:41:32;1.53;;;1.00;;
11500;SDS011;5807;51.606;7.624;2022-10-16T10:44:16;1.40;;;0.90;;
11500;SDS011;5807;51.606;7.624;2022-10-16T10:46:50;1.60;;;0.90;;
11500;SDS011;5807;51.606;7.624;2022-10-16T10:49:33;2.97;;;0.90;;
11500;SDS011;5807;51.606;7.624;2022-10-16T10:52:13;0.87;;;0.87;;
11500;SDS011;5807;51.606;7.624;2022-10-16T10:54:58;2.17;;;1.10;;
11500;SDS011;5807;51.606;7.624;2022-10-16T10:57:36;2.17;;;1.00;;
11500;SDS011;5807;51.606;7.624;2022-10-16T11:00:13;2.17;;;1.30;;
11500;SDS011;5807;51.606;7.624;2022-10-16T11:02:48;1.23;;;1.00;;
11500;SDS011;5807;51.606;7.624;2022-10-16T11:05:29;1.03;;;1.03;;
11500;SDS011;5807;51.606;7.624;2022-10-16T11:08:04;1.67;;;1.10;;
11500;SDS011;5807;51.606;7.624;2022-10-16T11:10:40;2.90;;;1.10;;
11500;SDS011;5807;51.606;7.624;2022-10-16T11:13:15;1.60;;;1.50;;
11500;SDS011;5807;51.606;7.624;2022-10-16T11:15:53;1.73;;;1.57;;
11500;SDS011;5807;51.606;7.624;2022-10-16T11:18:24;1.80;;;1.23;;
11500;SDS011;5807;51.606;7.624;2022-10-16T11:20:57;2.67;;;1.10;;
11500;SDS011;5807;51.606;7.624;2022-10-16T11:23:30;0.80;;;0.77;;
11500;SDS011;5807;51.606;7.624;2022-10-16T11:26:02;0.87;;;0.87;;
11500;SDS011;5807;51.606;7.624;2022-10-16T11:28:32;1.00;;;1.00;;
11500;SDS011;5807;51.606;7.624;2022-10-16T11:31:04;1.27;;;1.07;;
11500;SDS011;5807;51.606;7.624;2022-10-16T11:33:37;1.90;;;1.23;;
11500;SDS011;5807;51.606;7.624;2022-10-16T11:36:11;1.30;;;1.20;;
11500;SDS011;5807;51.606;7.624;2022-10-16T11:38:43;1.37;;;1.00;;
11500;SDS011;5807;51.606;7.624;2022-10-16T11:41:20;1.83;;;1.10;;
11500;SDS011;5807;51.606;7.624;2022-10-16T11:43:56;2.50;;;1.17;;
11500;SDS011;5807;51.606;7.624;2022-10-16T11:46:32;1.07;;;1.00;;
11500;SDS011;5807;51.606;7.624;2022-10-16T11:49:07;1.53;;;1.40;;
11500;SDS011;5807;51.606;7.624;2022-10-16T11:51:40;1.80;;;0.97;;
11500;SDS011;5807;51.606;7.624;2022-10-16T11:54:14;1.17;;;1.07;;
11500;SDS011;5807;51.606;7.624;2022-10-16T11:56:47;1.63;;;1.03;;
11500;SDS011;5807;51.606;7.624;2022-10-16T11:59:20;1.47;;;1.27;;
11500;SDS011;5807;51.606;7.624;2022-10-16T12:01:53;1.30;;;1.10;;
11500;SDS011;5807;51.606;7.624;2022-10-16T12:04:27;0.90;;;0.73;;
11500;SDS011;5807;51.606;7.624;2022-10-16T12:07:03;1.13;;;0.73;;
11500;SDS011;5807;51.606;7.624;2022-10-16T12:09:34;0.97;;;0.93;;
11500;SDS011;5807;51.606;7.624;2022-10-16T12:12:04;5.97;;;1.17;;
11500;SDS011;5807;51.606;7.624;2022-10-16T12:14:35;2.30;;;0.93;;
11500;SDS011;5807;51.606;7.624;2022-10-16T12:19:57;1.20;;;1.10;;
11500;SDS011;5807;51.606;7.624;2022-10-16T12:22:26;2.80;;;0.67;;
11500;SDS011;5807;51.606;7.624;2022-10-16T12:24:55;0.87;;;0.87;;
11500;SDS011;5807;51.606;7.624;2022-10-16T12:27:23;2.87;;;1.00;;
11500;SDS011;5807;51.606;7.624;2022-10-16T12:29:54;2.23;;;1.20;;
11500;SDS011;5807;51.606;7.624;2022-10-16T12:32:25;1.07;;;0.90;;
11500;SDS011;5807;51.606;7.624;2022-10-16T12:34:53;2.63;;;1.20;;
11500;SDS011;5807;51.606;7.624;2022-10-16T12:37:21;5.80;;;1.10;;
11500;SDS011;5807;51.606;7.624;2022-10-16T12:39:52;2.37;;;1.50;;
11500;SDS011;5807;51.606;7.624;2022-10-16T12:42:23;4.13;;;1.40;;
11500;SDS011;5807;51.606;7.624;2022-10-16T12:44:59;1.07;;;0.90;;
11500;SDS011;5807;51.606;7.624;2022-10-16T12:47:36;2.47;;;1.40;;
11500;SDS011;5807;51.606;7.624;2022-10-16T12:53:16;5.30;;;1.30;;
11500;SDS011;5807;51.606;7.624;2022-10-16T12:55:47;2.03;;;1.17;;
11500;SDS011;5807;51.606;7.624;2022-10-16T13:01:19;2.30;;;1.00;;
11500;SDS011;5807;51.606;7.624;2022-10-16T13:03:58;0.90;;;0.90;;
11500;SDS011;5807;51.606;7.624;2022-10-16T13:06:59;2.47;;;1.20;;
11500;SDS011;5807;51.606;7.624;2022-10-16T13:09:44;1.20;;;1.17;;
11500;SDS011;5807;51.606;7.624;2022-10-16T13:12:25;0.90;;;0.90;;
11500;SDS011;5807;51.606;7.624;2022-10-16T13:15:24;0.60;;;0.60;;
11500;SDS011;5807;51.606;7.624;2022-10-16T13:18:03;1.63;;;0.70;;
11500;SDS011;5807;51.606;7.624;2022-10-16T13:20:42;0.87;;;0.87;;
11500;SDS011;5807;51.606;7.624;2022-10-16T13:23:23;1.50;;;0.80;;
11500;SDS011;5807;51.606;7.624;2022-10-16T13:25:58;2.00;;;1.10;;
11500;SDS011;5807;51.606;7.624;2022-10-16T13:28:35;1.00;;;0.87;;
11500;SDS011;5807;51.606;7.624;2022-10-16T13:31:04;2.50;;;1.03;;
11500;SDS011;5807;51.606;7.624;2022-10-16T13:33:32;0.90;;;0.90;;
11500;SDS011;5807;51.606;7.624;2022-10-16T13:36:01;0.93;;;0.90;;
11500;SDS011;5807;51.606;7.624;2022-10-16T13:38:30;0.93;;;0.90;;
11500;SDS011;5807;51.606;7.624;2022-10-16T13:40:59;1.50;;;1.00;;
11500;SDS011;5807;51.606;7.624;2022-10-16T13:43:28;1.93;;;1.50;;
11500;SDS011;5807;51.606;7.624;2022-10-16T13:46:01;2.47;;;0.80;;
11500;SDS011;5807;51.606;7.624;2022-10-16T13:48:30;1.13;;;1.00;;
11500;SDS011;5807;51.606;7.624;2022-10-16T13:51:02;1.20;;;1.10;;
11500;SDS011;5807;51.606;7.624;2022-10-16T13:53:31;1.17;;;0.97;;
11500;SDS011;5807;51.606;7.624;2022-10-16T13:55:59;1.33;;;1.00;;
11500;SDS011;5807;51.606;7.624;2022-10-16T13:58:27;1.23;;;1.07;;
11500;SDS011;5807;51.606;7.624;2022-10-16T14:00:55;0.80;;;0.80;;
11500;SDS011;5807;51.606;7.624;2022-10-16T14:03:25;3.00;;;1.00;;
11500;SDS011;5807;51.606;7.624;2022-10-16T14:05:54;1.40;;;0.97;;
11500;SDS011;5807;51.606;7.624;2022-10-16T14:08:24;0.93;;;0.90;;
11500;SDS011;5807;51.606;7.624;2022-10-16T14:10:52;1.57;;;1.00;;
11500;SDS011;5807;51.606;7.624;2022-10-16T14:13:23;1.40;;;1.00;;
11500;SDS011;5807;51.606;7.624;2022-10-16T14:15:54;1.87;;;1.00;;
11500;SDS011;5807;51.606;7.624;2022-10-16T14:18:24;1.57;;;1.07;;
11500;SDS011;5807;51.606;7.624;2022-10-16T14:20:53;3.20;;;1.07;;
11500;SDS011;5807;51.606;7.624;2022-10-16T14:23:22;2.80;;;1.47;;
11500;SDS011;5807;51.606;7.624;2022-10-16T14:25:54;1.33;;;0.97;;
11500;SDS011;5807;51.606;7.624;2022-10-16T14:28:32;1.60;;;1.13;;
11500;SDS011;5807;51.606;7.624;2022-10-16T14:30:59;2.83;;;1.27;;
11500;SDS011;5807;51.606;7.624;2022-10-16T14:33:32;2.00;;;1.30;;
11500;SDS011;5807;51.606;7.624;2022-10-16T14:36:01;12.93;;;2.33;;
11500;SDS011;5807;51.606;7.624;2022-10-16T14:38:30;1.00;;;1.00;;
11500;SDS011;5807;51.606;7.624;2022-10-16T14:40:58;2.20;;;1.20;;
11500;SDS011;5807;51.606;7.624;2022-10-16T14:43:29;1.07;;;1.07;;
11500;SDS011;5807;51.606;7.624;2022-10-16T14:45:59;0.87;;;0.83;;
11500;SDS011;5807;51.606;7.624;2022-10-16T14:48:27;1.00;;;1.00;;
11500;SDS011;5807;51.606;7.624;2022-10-16T14:50:55;1.20;;;1.20;;
11500;SDS011;5807;51.606;7.624;2022-10-16T14:53:22;2.03;;;1.00;;
11500;SDS011;5807;51.606;7.624;2022-10-16T14:55:49;3.00;;;1.30;;
11500;SDS011;5807;51.606;7.624;2022-10-16T14:58:17;1.40;;;1.20;;
11500;SDS011;5807;51.606;7.624;2022-10-16T15:00:47;2.73;;;1.03;;
11500;SDS011;5807;51.606;7.624;2022-10-16T15:03:14;2.47;;;1.33;;
11500;SDS011;5807;51.606;7.624;2022-10-16T15:05:42;2.63;;;1.27;;
11500;SDS011;5807;51.606;7.624;2022-10-16T15:08:10;1.37;;;1.17;;
11500;SDS011;5807;51.606;7.624;2022-10-16T15:10:38;2.43;;;1.33;;
11500;SDS011;5807;51.606;7.624;2022-10-16T15:13:06;1.10;;;1.00;;
11500;SDS011;5807;51.606;7.624;2022-10-16T15:15:35;1.10;;;1.00;;
11500;SDS011;5807;51.606;7.624;2022-10-16T15:18:05;1.40;;;1.30;;
11500;SDS011;5807;51.606;7.624;2022-10-16T15:20:32;1.53;;;1.27;;
11500;SDS011;5807;51.606;7.624;2022-10-16T15:23:01;2.57;;;1.10;;
11500;SDS011;5807;51.606;7.624;2022-10-16T15:25:34;1.03;;;1.03;;
11500;SDS011;5807;51.606;7.624;2022-10-16T15:28:04;1.23;;;1.07;;
11500;SDS011;5807;51.606;7.624;2022-10-16T15:30:32;1.00;;;0.90;;
11500;SDS011;5807;51.606;7.624;2022-10-16T15:36:03;1.37;;;0.90;;
11500;SDS011;5807;51.606;7.624;2022-10-16T15:38:31;3.70;;;1.50;;
11500;SDS011;5807;51.606;7.624;2022-10-16T15:43:50;2.30;;;2.10;;
11500;SDS011;5807;51.606;7.624;2022-10-16T15:46:18;1.80;;;1.70;;
11500;SDS011;5807;51.606;7.624;2022-10-16T15:48:46;2.67;;;1.90;;
11500;SDS011;5807;51.606;7.624;2022-10-16T15:51:14;2.00;;;1.90;;
11500;SDS011;5807;51.606;7.624;2022-10-16T15:53:41;1.93;;;1.60;;
11500;SDS011;5807;51.606;7.624;2022-10-16T15:56:11;2.93;;;2.00;;
11500;SDS011;5807;51.606;7.624;2022-10-16T15:58:40;3.13;;;1.80;;